Time,TemperatureF,DewpointF,PressureIn,WindDirection,WindDirectionDegrees,WindSpeedMPH,WindSpeedGustMPH,Humidity,HourlyPrecipIn,Conditions,Clouds,dailyrainin,SoftwareType,DateUTC
2013-10-18 00:01:00,50.2,45.2,30.09,SSW,202,0.0,0.0,83,0.00,,---,0.04,VWS V14.01,2013-10-18 05:01:00,
2013-10-18 00:06:00,50.2,45.2,30.09,SSW,202,0.0,0.0,83,0.00,,---,0.00,VWS V14.01,2013-10-18 05:06:00,
2013-10-18 00:11:00,50.2,45.2,30.09,SSW,202,0.0,0.0,83,0.00,,---,0.00,VWS V14.01,2013-10-18 05:11:00,
2013-10-18 00:16:00,50.2,45.2,30.09,West,270,0.0,0.0,83,0.00,,---,0.00,VWS V14.01,2013-10-18 05:16:00,
2013-10-18 00:21:00,50.2,45.2,30.09,WSW,248,0.0,0.0,83,0.00,,---,0.00,VWS V14.01,2013-10-18 05:21:00,
2013-10-18 00:26:00,50.2,45.2,30.09,WSW,248,0.0,0.0,83,0.00,,---,0.00,VWS V14.01,2013-10-18 05:26:00,
2013-10-18 00:31:00,50.2,45.2,30.09,WSW,248,0.0,0.0,83,0.00,,---,0.00,VWS V14.01,2013-10-18 05:31:00,
2013-10-18 00:36:00,50.2,45.2,30.09,WSW,248,0.0,0.0,83,0.00,,---,0.00,VWS V14.01,2013-10-18 05:36:00,
2013-10-18 00:41:00,50.2,45.2,30.09,WSW,248,0.0,0.0,83,0.00,,---,0.00,VWS V14.01,2013-10-18 05:41:00,
2013-10-18 00:46:00,50.2,45.2,30.09,WSW,248,0.0,0.0,83,0.00,,---,0.00,VWS V14.01,2013-10-18 05:46:00,
2013-10-18 00:51:00,50.2,45.2,30.09,WSW,248,0.0,0.0,83,0.00,,---,0.00,VWS V14.01,2013-10-18 05:51:00,
2013-10-18 00:56:00,50.2,45.2,30.09,WSW,248,0.0,0.0,83,0.00,,---,0.00,VWS V14.01,2013-10-18 05:56:00,
2013-10-18 01:01:00,50.2,45.2,30.09,SW,225,0.0,0.0,83,0.00,,---,0.00,VWS V14.01,2013-10-18 06:01:00,
2013-10-18 01:06:00,50.2,45.2,30.09,SW,225,0.0,0.0,83,0.00,,---,0.00,VWS V14.01,2013-10-18 06:06:00,
2013-10-18 01:11:00,47.8,44.5,30.09,SW,225,0.0,0.0,88,0.00,,---,0.00,VWS V14.01,2013-10-18 06:11:00,
2013-10-18 01:16:00,47.8,44.5,30.09,SW,225,0.0,0.0,88,0.00,,---,0.00,VWS V14.01,2013-10-18 06:16:00,
2013-10-18 01:21:00,47.8,44.5,30.09,SW,225,0.0,0.0,88,0.00,,---,0.00,VWS V14.01,2013-10-18 06:21:00,
2013-10-18 01:25:00,47.8,44.5,30.09,SW,225,0.0,0.0,88,0.00,,---,0.00,VWS V14.01,2013-10-18 06:25:00,
2013-10-18 01:30:00,47.8,44.5,30.09,SW,225,0.0,0.0,88,0.00,,---,0.00,VWS V14.01,2013-10-18 06:30:00,
2013-10-18 01:35:00,47.8,44.5,30.09,SW,225,0.0,0.0,88,0.00,,---,0.00,VWS V14.01,2013-10-18 06:35:00,
2013-10-18 01:40:00,47.8,44.5,30.09,SW,225,0.0,0.0,88,0.00,,---,0.00,VWS V14.01,2013-10-18 06:40:00,
2013-10-18 01:45:00,47.8,44.5,30.09,SW,225,0.0,0.0,88,0.00,,---,0.00,VWS V14.01,2013-10-18 06:45:00,
2013-10-18 01:50:00,47.3,43.6,30.09,SW,225,0.0,0.0,87,0.00,,---,0.00,VWS V14.01,2013-10-18 06:50:00,
2013-10-18 01:55:00,47.3,43.6,30.09,SW,225,0.0,0.0,87,0.00,,---,0.00,VWS V14.01,2013-10-18 06:55:00,
2013-10-18 02:00:00,47.1,43.5,30.09,SW,225,0.0,0.0,87,0.00,,---,0.00,VWS V14.01,2013-10-18 07:00:00,
2013-10-18 02:05:00,47.1,43.8,30.09,SW,225,0.0,0.0,88,0.00,,---,0.00,VWS V14.01,2013-10-18 07:05:00,
2013-10-18 02:10:00,47.1,43.8,30.09,SW,225,0.0,0.0,88,0.00,,---,0.00,VWS V14.01,2013-10-18 07:10:00,
2013-10-18 02:15:00,47.1,43.8,30.09,SW,225,0.0,0.0,88,0.00,,---,0.00,VWS V14.01,2013-10-18 07:15:00,
2013-10-18 02:20:00,47.1,43.8,30.09,SW,225,0.0,0.0,88,0.00,,---,0.00,VWS V14.01,2013-10-18 07:20:00,
2013-10-18 02:25:00,47.1,43.8,30.09,SW,225,0.0,0.0,88,0.00,,---,0.00,VWS V14.01,2013-10-18 07:25:00,
2013-10-18 02:30:00,47.1,43.8,30.09,SW,225,0.0,0.0,88,0.00,,---,0.00,VWS V14.01,2013-10-18 07:30:00,
2013-10-18 02:35:00,46.8,43.1,30.09,SW,225,0.0,0.0,87,0.00,,---,0.00,VWS V14.01,2013-10-18 07:35:00,
2013-10-18 02:40:00,46.9,43.6,30.09,SW,225,0.0,0.0,88,0.00,,---,0.00,VWS V14.01,2013-10-18 07:40:00,
2013-10-18 02:45:00,46.8,43.4,30.09,SW,225,0.0,0.0,88,0.00,,---,0.00,VWS V14.01,2013-10-18 07:45:00,
2013-10-18 02:50:00,46.8,43.4,30.09,SW,225,0.0,0.0,88,0.00,,---,0.00,VWS V14.01,2013-10-18 07:50:00,
2013-10-18 02:55:00,46.6,43.2,30.09,SW,225,0.0,0.0,88,0.00,,---,0.00,VWS V14.01,2013-10-18 07:55:00,
2013-10-18 03:00:00,46.6,43.2,30.09,SW,225,0.0,0.0,88,0.00,,---,0.00,VWS V14.01,2013-10-18 08:00:00,
2013-10-18 03:05:00,46.6,43.2,30.09,SW,225,0.0,0.0,88,0.00,,---,0.00,VWS V14.01,2013-10-18 08:05:00,
2013-10-18 03:10:00,46.4,43.0,30.09,SW,225,0.0,0.0,88,0.00,,---,0.00,VWS V14.01,2013-10-18 08:10:00,
2013-10-18 03:15:00,46.4,43.0,30.09,SW,225,0.0,0.0,88,0.00,,---,0.00,VWS V14.01,2013-10-18 08:15:00,
2013-10-18 03:20:00,46.4,43.0,30.09,SW,225,0.0,0.0,88,0.00,,---,0.00,VWS V14.01,2013-10-18 08:20:00,
2013-10-18 03:25:00,46.2,42.9,30.06,SW,225,0.0,0.0,88,0.00,,---,0.00,VWS V14.01,2013-10-18 08:25:00,
2013-10-18 03:30:00,46.2,42.9,30.06,SW,225,0.0,0.0,88,0.00,,---,0.00,VWS V14.01,2013-10-18 08:30:00,
2013-10-18 03:35:00,46.2,42.9,30.06,SW,225,0.0,0.0,88,0.00,,---,0.00,VWS V14.01,2013-10-18 08:35:00,
2013-10-18 03:40:00,46.0,42.7,30.09,SW,225,0.0,0.0,88,0.00,,---,0.00,VWS V14.01,2013-10-18 08:40:00,
2013-10-18 03:45:00,46.0,42.7,30.09,SW,225,0.0,0.0,88,0.00,,---,0.00,VWS V14.01,2013-10-18 08:45:00,
2013-10-18 03:50:00,45.9,42.5,30.09,SW,225,0.0,0.0,88,0.00,,---,0.00,VWS V14.01,2013-10-18 08:50:00,
2013-10-18 03:55:00,45.7,42.3,30.09,SW,225,0.0,0.0,88,0.00,,---,0.00,VWS V14.01,2013-10-18 08:55:00,
2013-10-18 04:00:00,45.5,42.2,30.09,SW,225,0.0,0.0,88,0.00,,---,0.00,VWS V14.01,2013-10-18 09:00:00,
2013-10-18 04:05:00,45.5,42.2,30.09,West,270,0.0,0.0,88,0.00,,---,0.00,VWS V14.01,2013-10-18 09:05:00,
2013-10-18 04:10:00,45.5,42.2,30.06,West,270,0.0,0.0,88,0.00,,---,0.00,VWS V14.01,2013-10-18 09:10:00,
2013-10-18 04:15:00,45.5,42.5,30.06,West,270,0.0,0.0,89,0.00,,---,0.00,VWS V14.01,2013-10-18 09:15:00,
2013-10-18 04:20:00,45.5,42.5,30.06,West,270,0.0,0.0,89,0.00,,---,0.00,VWS V14.01,2013-10-18 09:20:00,
2013-10-18 04:25:00,45.3,42.0,30.09,West,270,0.0,0.0,88,0.00,,---,0.00,VWS V14.01,2013-10-18 09:25:00,
2013-10-18 04:30:00,45.5,42.5,30.09,West,270,0.0,0.0,89,0.00,,---,0.00,VWS V14.01,2013-10-18 09:30:00,
2013-10-18 04:35:00,45.5,42.5,30.09,West,270,0.0,0.0,89,0.00,,---,0.05,VWS V14.01,2013-10-18 09:35:00,
2013-10-18 04:40:00,45.3,42.3,30.09,West,270,0.0,0.0,89,0.00,,---,0.00,VWS V14.01,2013-10-18 09:40:00,
2013-10-18 04:45:00,45.3,42.3,30.09,West,270,0.0,0.0,89,0.00,,---,0.00,VWS V14.01,2013-10-18 09:45:00,
2013-10-18 04:50:00,45.1,42.1,30.09,West,270,0.0,0.0,89,0.00,,---,0.00,VWS V14.01,2013-10-18 09:50:00,
2013-10-18 04:55:00,45.0,41.6,30.09,West,270,0.0,0.0,88,0.00,,---,0.00,VWS V14.01,2013-10-18 09:55:00,
2013-10-18 05:00:00,45.0,41.6,30.09,West,270,0.0,0.0,88,0.00,,---,0.00,VWS V14.01,2013-10-18 10:00:00,
2013-10-18 05:05:00,44.8,41.5,30.09,West,270,0.0,0.0,88,0.00,,---,0.00,VWS V14.01,2013-10-18 10:05:00,
2013-10-18 05:10:00,44.8,41.5,30.09,West,270,0.0,0.0,88,0.00,,---,0.00,VWS V14.01,2013-10-18 10:10:00,
2013-10-18 05:15:00,44.6,41.3,30.09,West,270,0.0,0.0,88,0.00,,---,0.00,VWS V14.01,2013-10-18 10:15:00,
2013-10-18 05:20:00,44.6,41.3,30.09,West,270,0.0,0.0,88,0.00,,---,0.00,VWS V14.01,2013-10-18 10:20:00,
2013-10-18 05:25:00,44.8,41.7,30.09,West,270,0.0,0.0,89,0.00,,---,0.00,VWS V14.01,2013-10-18 10:25:00,
2013-10-18 05:30:00,44.8,41.7,30.09,West,270,0.0,0.0,89,0.00,,---,0.00,VWS V14.01,2013-10-18 10:30:00,
2013-10-18 05:35:00,44.6,41.6,30.09,West,270,0.0,0.0,89,0.00,,---,0.00,VWS V14.01,2013-10-18 10:35:00,
2013-10-18 05:40:00,44.6,41.3,30.09,West,270,0.0,0.0,88,0.00,,---,0.00,VWS V14.01,2013-10-18 10:40:00,
2013-10-18 05:45:00,44.4,41.4,30.09,West,270,0.0,0.0,89,0.00,,---,0.00,VWS V14.01,2013-10-18 10:45:00,
2013-10-18 05:50:00,44.6,41.6,30.09,West,270,0.0,0.0,89,0.00,,---,0.00,VWS V14.01,2013-10-18 10:50:00,
2013-10-18 05:55:00,44.2,41.2,30.09,West,270,0.0,0.0,89,0.00,,---,0.00,VWS V14.01,2013-10-18 10:55:00,
2013-10-18 06:00:00,44.2,40.9,30.09,West,270,0.0,0.0,88,0.00,,---,0.00,VWS V14.01,2013-10-18 11:00:00,
2013-10-18 06:05:00,44.2,41.2,30.09,West,270,0.0,0.0,89,0.00,,---,0.00,VWS V14.01,2013-10-18 11:05:00,
2013-10-18 06:10:00,44.4,41.4,30.09,West,270,0.0,0.0,89,0.00,,---,0.00,VWS V14.01,2013-10-18 11:10:00,
2013-10-18 06:15:00,44.4,41.7,30.09,West,270,0.0,0.0,90,0.00,,---,0.00,VWS V14.01,2013-10-18 11:15:00,
2013-10-18 06:20:00,44.2,41.2,30.09,West,270,0.0,0.0,89,0.00,,---,0.00,VWS V14.01,2013-10-18 11:20:00,
2013-10-18 06:25:00,44.1,41.0,30.09,West,270,0.0,0.0,89,0.00,,---,0.00,VWS V14.01,2013-10-18 11:25:00,
2013-10-18 06:30:00,43.9,40.8,30.09,West,270,0.0,0.0,89,0.00,,---,0.00,VWS V14.01,2013-10-18 11:30:00,
2013-10-18 06:35:00,43.9,40.8,30.09,West,270,0.0,0.0,89,0.00,,---,0.00,VWS V14.01,2013-10-18 11:35:00,
2013-10-18 06:40:00,43.7,40.7,30.09,West,270,0.0,0.0,89,0.00,,---,0.00,VWS V14.01,2013-10-18 11:40:00,
2013-10-18 06:45:00,43.7,40.7,30.09,West,270,0.0,0.0,89,0.00,,---,0.00,VWS V14.01,2013-10-18 11:45:00,
2013-10-18 06:50:00,43.7,40.7,30.09,West,270,0.0,0.0,89,0.00,,---,0.00,VWS V14.01,2013-10-18 11:50:00,
2013-10-18 06:55:00,43.7,40.7,30.09,West,270,0.0,0.0,89,0.00,,---,0.00,VWS V14.01,2013-10-18 11:55:00,
2013-10-18 07:00:00,43.7,40.7,30.09,West,270,0.0,0.0,89,0.00,,---,0.00,VWS V14.01,2013-10-18 12:00:00,
2013-10-18 07:05:00,43.7,40.7,30.09,West,270,0.0,0.0,89,0.00,,---,0.00,VWS V14.01,2013-10-18 12:05:00,
2013-10-18 07:10:00,43.7,40.7,30.09,West,270,0.0,0.0,89,0.00,,---,0.00,VWS V14.01,2013-10-18 12:10:00,
2013-10-18 07:15:00,43.7,40.7,30.09,West,270,0.0,0.0,89,0.00,,---,0.00,VWS V14.01,2013-10-18 12:15:00,
2013-10-18 07:20:00,43.5,40.5,30.09,West,270,0.0,0.0,89,0.00,,---,0.00,VWS V14.01,2013-10-18 12:20:00,
2013-10-18 07:25:00,43.5,40.5,30.12,West,270,0.0,0.0,89,0.00,,---,0.00,VWS V14.01,2013-10-18 12:25:00,
2013-10-18 07:30:00,43.5,40.5,30.12,West,270,0.0,0.0,89,0.00,,---,0.00,VWS V14.01,2013-10-18 12:30:00,
2013-10-18 07:35:00,44.1,41.3,30.12,West,270,0.0,0.0,90,0.00,,---,0.00,VWS V14.01,2013-10-18 12:35:00,
2013-10-18 07:40:00,44.8,42.3,30.12,West,270,0.0,0.0,91,0.00,,---,0.00,VWS V14.01,2013-10-18 12:40:00,
2013-10-18 07:45:00,46.0,43.8,30.12,West,270,0.0,0.0,92,0.00,,---,0.00,VWS V14.01,2013-10-18 12:45:00,
2013-10-18 07:50:00,47.1,44.9,30.12,West,270,0.0,0.0,92,0.00,,---,0.00,VWS V14.01,2013-10-18 12:50:00,
2013-10-18 07:55:00,48.6,46.3,30.12,West,270,0.0,0.0,92,0.00,,---,0.00,VWS V14.01,2013-10-18 12:55:00,
2013-10-18 08:00:00,49.6,47.4,30.12,West,270,0.0,0.0,92,0.00,,---,0.00,VWS V14.01,2013-10-18 13:00:00,
2013-10-18 08:05:00,51.1,48.2,30.12,West,270,0.0,0.0,90,0.00,,---,0.00,VWS V14.01,2013-10-18 13:05:00,
2013-10-18 08:10:00,52.2,47.8,30.12,West,270,0.0,0.0,85,0.00,,---,0.00,VWS V14.01,2013-10-18 13:10:00,
2013-10-18 08:15:00,53.4,48.7,30.12,West,270,0.0,0.0,84,0.00,,---,0.00,VWS V14.01,2013-10-18 13:15:00,
2013-10-18 08:20:00,54.3,48.6,30.12,West,270,0.0,0.0,81,0.00,,---,0.00,VWS V14.01,2013-10-18 13:20:00,
2013-10-18 08:25:00,54.5,47.5,30.12,West,270,0.0,0.0,77,0.00,,---,0.00,VWS V14.01,2013-10-18 13:25:00,
2013-10-18 08:30:00,55.2,48.2,30.12,West,270,0.0,0.0,77,0.00,,---,0.00,VWS V14.01,2013-10-18 13:30:00,
2013-10-18 08:35:00,55.6,47.8,30.12,West,270,0.0,0.0,75,0.00,,---,0.00,VWS V14.01,2013-10-18 13:35:00,
2013-10-18 08:40:00,55.8,48.0,30.12,West,270,0.0,0.0,75,0.00,,---,0.00,VWS V14.01,2013-10-18 13:40:00,
2013-10-18 08:45:00,55.2,47.5,30.12,West,270,0.0,0.0,75,0.00,,---,0.00,VWS V14.01,2013-10-18 13:45:00,
2013-10-18 08:50:00,55.6,48.2,30.12,WSW,248,0.0,0.0,76,0.00,,---,0.00,VWS V14.01,2013-10-18 13:50:00,
2013-10-18 08:55:00,55.6,47.4,30.12,WNW,292,0.0,0.0,74,0.00,,---,0.00,VWS V14.01,2013-10-18 13:55:00,
2013-10-18 09:00:00,55.4,47.6,30.12,NNW,338,1.1,2.5,75,0.00,,---,0.00,VWS V14.01,2013-10-18 14:00:00,
2013-10-18 09:05:00,55.4,47.6,30.12,North,0,0.9,0.9,75,0.00,,---,0.00,VWS V14.01,2013-10-18 14:05:00,
2013-10-18 09:10:00,55.4,47.6,30.12,WSW,248,3.4,3.4,75,0.00,,---,0.00,VWS V14.01,2013-10-18 14:10:00,
2013-10-18 09:15:00,55.4,48.0,30.12,West,270,1.3,1.3,76,0.00,,---,0.00,VWS V14.01,2013-10-18 14:15:00,
2013-10-18 09:20:00,55.6,48.2,30.12,WSW,248,2.2,2.2,76,0.00,,---,0.00,VWS V14.01,2013-10-18 14:20:00,
2013-10-18 09:25:00,55.8,48.7,30.12,NW,315,0.0,0.9,77,0.00,,---,0.00,VWS V14.01,2013-10-18 14:25:00,
2013-10-18 09:30:00,55.9,48.8,30.12,NNW,338,0.0,0.0,77,0.00,,---,0.00,VWS V14.01,2013-10-18 14:30:00,
2013-10-18 09:35:00,55.9,49.2,30.12,WSW,248,0.0,0.0,78,0.00,,---,0.00,VWS V14.01,2013-10-18 14:35:00,
2013-10-18 09:40:00,56.1,49.0,30.15,NNE,22,1.3,1.3,77,0.00,,---,0.00,VWS V14.01,2013-10-18 14:40:00,
2013-10-18 09:45:00,56.3,49.2,30.15,NNW,338,1.6,1.6,77,0.00,,---,0.00,VWS V14.01,2013-10-18 14:45:00,
2013-10-18 09:50:00,56.5,49.0,30.15,NNW,338,2.5,3.4,76,0.00,,---,0.00,VWS V14.01,2013-10-18 14:50:00,
2013-10-18 09:55:00,56.8,49.0,30.12,WNW,292,2.0,2.5,75,0.00,,---,0.00,VWS V14.01,2013-10-18 14:55:00,
2013-10-18 10:00:00,57.0,49.2,30.12,WNW,292,4.0,4.9,75,0.00,,---,0.00,VWS V14.01,2013-10-18 15:00:00,
2013-10-18 10:05:00,57.2,49.0,30.12,NNE,22,3.1,3.1,74,0.00,,---,0.00,VWS V14.01,2013-10-18 15:05:00,
2013-10-18 10:10:00,57.6,49.3,30.12,WNW,292,1.6,1.6,74,0.00,,---,0.00,VWS V14.01,2013-10-18 15:10:00,
2013-10-18 10:15:00,57.7,49.5,30.12,WNW,292,4.3,4.3,74,0.00,,---,0.00,VWS V14.01,2013-10-18 15:15:00,
2013-10-18 10:20:00,58.1,49.5,30.12,WSW,248,2.9,3.8,73,0.00,,---,0.00,VWS V14.01,2013-10-18 15:20:00,
2013-10-18 10:25:00,58.5,49.8,30.12,West,270,2.0,2.2,73,0.00,,---,0.00,VWS V14.01,2013-10-18 15:25:00,
2013-10-18 10:30:00,59.0,50.0,30.12,West,270,1.3,1.3,72,0.00,,---,0.00,VWS V14.01,2013-10-18 15:30:00,
2013-10-18 10:35:00,59.7,51.1,30.12,West,270,1.3,2.0,73,0.00,,---,0.00,VWS V14.01,2013-10-18 15:35:00,
2013-10-18 10:40:00,60.4,50.6,30.12,WNW,292,2.7,5.4,70,0.00,,---,0.00,VWS V14.01,2013-10-18 15:40:00,
2013-10-18 10:45:00,61.0,50.0,30.12,West,270,0.0,0.0,67,0.00,,---,0.00,VWS V14.01,2013-10-18 15:45:00,
2013-10-18 10:50:00,61.3,50.7,30.12,WSW,248,2.9,3.6,68,0.00,,---,0.00,VWS V14.01,2013-10-18 15:50:00,
2013-10-18 10:55:00,61.7,49.8,30.12,West,270,1.1,2.0,65,0.00,,---,0.00,VWS V14.01,2013-10-18 15:55:00,
2013-10-18 11:00:00,62.1,49.8,30.12,NW,315,2.7,2.7,64,0.00,,---,0.00,VWS V14.01,2013-10-18 16:00:00,
2013-10-18 11:05:00,62.4,49.7,30.12,WNW,292,2.5,3.6,63,0.00,,---,0.00,VWS V14.01,2013-10-18 16:05:00,
2013-10-18 11:10:00,62.6,45.7,30.12,WNW,292,3.6,3.6,54,0.00,,---,0.00,VWS V14.01,2013-10-18 16:10:00,
2013-10-18 11:15:00,62.8,45.4,30.12,WNW,292,2.5,3.4,53,0.00,,---,0.00,VWS V14.01,2013-10-18 16:15:00,
2013-10-18 11:20:00,63.1,46.7,30.12,NNE,22,2.5,2.5,55,0.00,,---,0.00,VWS V14.01,2013-10-18 16:20:00,
2013-10-18 11:25:00,63.7,44.2,30.12,West,270,2.7,4.3,49,0.00,,---,0.00,VWS V14.01,2013-10-18 16:25:00,
2013-10-18 11:30:00,64.2,45.2,30.12,WNW,292,2.7,5.8,50,0.00,,---,0.00,VWS V14.01,2013-10-18 16:30:00,
2013-10-18 11:34:00,64.4,42.6,30.12,WNW,292,2.9,6.5,45,0.00,,---,0.00,VWS V14.01,2013-10-18 16:34:00,
2013-10-18 11:39:00,64.8,43.0,30.12,West,270,3.6,3.6,45,0.00,,---,0.00,VWS V14.01,2013-10-18 16:39:00,
2013-10-18 11:44:00,65.1,43.3,30.12,WSW,248,4.0,4.0,45,0.00,,---,0.00,VWS V14.01,2013-10-18 16:44:00,
2013-10-18 11:49:00,65.5,42.4,30.12,North,0,1.1,5.8,43,0.00,,---,0.00,VWS V14.01,2013-10-18 16:49:00,
2013-10-18 11:54:00,65.8,43.9,30.12,WNW,292,3.4,3.4,45,0.00,,---,0.00,VWS V14.01,2013-10-18 16:54:00,
2013-10-18 11:59:00,66.2,43.7,30.12,NW,315,2.9,3.4,44,0.00,,---,0.00,VWS V14.01,2013-10-18 16:59:00,
2013-10-18 12:04:00,66.4,41.3,30.12,NNW,338,3.4,3.4,40,0.00,,---,0.00,VWS V14.01,2013-10-18 17:04:00,
2013-10-18 12:09:00,66.6,40.9,30.12,NNW,338,4.9,4.9,39,0.00,,---,0.00,VWS V14.01,2013-10-18 17:09:00,
2013-10-18 12:14:00,66.7,42.9,30.12,West,270,3.4,3.4,42,0.00,,---,0.00,VWS V14.01,2013-10-18 17:14:00,
2013-10-18 12:19:00,67.3,42.8,30.12,West,270,3.4,3.4,41,0.00,,---,0.00,VWS V14.01,2013-10-18 17:19:00,
2013-10-18 12:24:00,67.3,40.8,30.12,North,0,2.7,2.7,38,0.00,,---,0.00,VWS V14.01,2013-10-18 17:24:00,
2013-10-18 12:29:00,67.5,41.0,30.12,West,270,1.6,6.0,38,0.00,,---,0.00,VWS V14.01,2013-10-18 17:29:00,
2013-10-18 12:34:00,67.5,40.3,30.12,NNW,338,0.0,5.6,37,0.00,,---,0.00,VWS V14.01,2013-10-18 17:34:00,
2013-10-18 12:35:00,67.5,40.3,30.12,NW,315,1.6,5.6,37,0.00,,---,0.00,VWS V14.01,2013-10-18 17:35:00,
2013-10-18 12:40:00,67.6,41.2,30.12,NNE,22,1.6,1.6,38,0.00,,---,0.00,VWS V14.01,2013-10-18 17:40:00,
2013-10-18 12:45:00,67.8,41.3,30.12,NNE,22,1.6,2.7,38,0.00,,---,0.00,VWS V14.01,2013-10-18 17:45:00,
2013-10-18 12:50:00,68.0,40.8,30.12,WNW,292,3.6,3.6,37,0.00,,---,0.00,VWS V14.01,2013-10-18 17:50:00,
2013-10-18 12:55:00,68.2,40.2,30.09,WNW,292,2.7,3.4,36,0.00,,---,0.00,VWS V14.01,2013-10-18 17:55:00,
2013-10-18 13:00:00,68.4,40.4,30.09,West,270,2.2,2.5,36,0.00,,---,0.05,VWS V14.01,2013-10-18 18:00:00,
2013-10-18 13:05:00,68.5,40.5,30.09,West,270,1.3,1.6,36,0.00,,---,0.00,VWS V14.01,2013-10-18 18:05:00,
2013-10-18 13:10:00,68.4,39.7,30.09,West,270,2.9,3.6,35,0.00,,---,0.00,VWS V14.01,2013-10-18 18:10:00,
2013-10-18 13:15:00,68.5,39.8,30.09,West,270,3.4,5.6,35,0.00,,---,0.00,VWS V14.01,2013-10-18 18:15:00,
2013-10-18 13:20:00,68.4,41.1,30.09,SE,135,0.9,2.5,37,0.00,,---,0.00,VWS V14.01,2013-10-18 18:20:00,
2013-10-18 13:25:00,68.4,40.4,30.09,NW,315,2.7,4.9,36,0.00,,---,0.00,VWS V14.01,2013-10-18 18:25:00,
2013-10-18 13:30:00,68.9,41.6,30.09,NW,315,3.1,3.1,37,0.00,,---,0.00,VWS V14.01,2013-10-18 18:30:00,
2013-10-18 13:35:00,69.1,41.7,30.09,WNW,292,2.0,2.0,37,0.00,,---,0.00,VWS V14.01,2013-10-18 18:35:00,
2013-10-18 13:40:00,69.1,41.0,30.09,NW,315,1.6,5.4,36,0.00,,---,0.00,VWS V14.01,2013-10-18 18:40:00,
2013-10-18 13:45:00,69.1,41.0,30.09,North,0,1.3,3.6,36,0.00,,---,0.00,VWS V14.01,2013-10-18 18:45:00,
2013-10-18 13:49:00,69.4,40.6,30.09,West,270,3.8,4.3,35,0.00,,---,0.00,VWS V14.01,2013-10-18 18:49:00,
2013-10-18 13:54:00,68.7,40.0,30.09,SW,225,4.0,4.0,35,0.00,,---,0.00,VWS V14.01,2013-10-18 18:54:00,
2013-10-18 13:59:00,69.1,40.3,30.09,WNW,292,0.0,0.9,35,0.00,,---,0.00,VWS V14.01,2013-10-18 18:59:00,
2013-10-18 14:04:00,69.4,40.6,30.09,WNW,292,1.6,4.0,35,0.00,,---,0.00,VWS V14.01,2013-10-18 19:04:00,
2013-10-18 14:09:00,68.5,40.5,30.09,WNW,292,2.9,3.8,36,0.00,,---,0.00,VWS V14.01,2013-10-18 19:09:00,
2013-10-18 14:14:00,68.2,40.9,30.09,WNW,292,0.0,1.6,37,0.00,,---,0.00,VWS V14.01,2013-10-18 19:14:00,
2013-10-18 14:19:00,68.5,41.3,30.09,NNE,22,1.6,2.7,37,0.00,,---,0.00,VWS V14.01,2013-10-18 19:19:00,
2013-10-18 14:24:00,68.5,41.3,30.09,ENE,68,2.9,2.9,37,0.00,,---,0.00,VWS V14.01,2013-10-18 19:24:00,
2013-10-18 14:29:00,69.1,40.3,30.09,NW,315,3.8,5.6,35,0.00,,---,0.00,VWS V14.01,2013-10-18 19:29:00,
2013-10-18 14:34:00,68.5,40.5,30.09,WNW,292,1.1,2.0,36,0.00,,---,0.00,VWS V14.01,2013-10-18 19:34:00,
2013-10-18 14:39:00,68.5,40.5,30.09,WSW,248,0.0,2.9,36,0.00,,---,0.00,VWS V14.01,2013-10-18 19:39:00,
2013-10-18 14:44:00,68.7,42.1,30.09,WNW,292,2.0,2.0,38,0.00,,---,0.00,VWS V14.01,2013-10-18 19:44:00,
2013-10-18 14:49:00,69.3,40.5,30.09,West,270,3.4,4.3,35,0.00,,---,0.00,VWS V14.01,2013-10-18 19:49:00,
2013-10-18 14:54:00,68.5,40.5,30.06,NNE,22,4.3,4.3,36,0.00,,---,0.00,VWS V14.01,2013-10-18 19:54:00,
2013-10-18 14:59:00,68.2,40.2,30.06,North,0,1.6,3.6,36,0.00,,---,0.00,VWS V14.01,2013-10-18 19:59:00,
2013-10-18 15:04:00,68.5,40.5,30.06,WNW,292,1.3,2.7,36,0.00,,---,0.00,VWS V14.01,2013-10-18 20:04:00,
2013-10-18 15:09:00,68.7,41.4,30.06,WSW,248,4.0,4.0,37,0.00,,---,0.00,VWS V14.01,2013-10-18 20:09:00,
2013-10-18 15:14:00,68.5,39.8,30.09,NE,45,5.4,5.4,35,0.00,,---,0.00,VWS V14.01,2013-10-18 20:14:00,
2013-10-18 15:19:00,68.4,40.4,30.09,WSW,248,0.0,1.1,36,0.00,,---,0.00,VWS V14.01,2013-10-18 20:19:00,
2013-10-18 15:24:00,67.8,40.6,30.09,West,270,0.0,2.7,37,0.00,,---,0.00,VWS V14.01,2013-10-18 20:24:00,
2013-10-18 15:29:00,68.5,40.5,30.09,WSW,248,2.7,2.7,36,0.00,,---,0.00,VWS V14.01,2013-10-18 20:29:00,
2013-10-18 15:34:00,68.7,40.7,30.09,WNW,292,1.3,2.7,36,0.00,,---,0.00,VWS V14.01,2013-10-18 20:34:00,
2013-10-18 15:39:00,68.9,40.2,30.06,WNW,292,3.4,3.4,35,0.00,,---,0.00,VWS V14.01,2013-10-18 20:39:00,
2013-10-18 15:44:00,68.9,40.2,30.06,West,270,2.0,2.2,35,0.00,,---,0.00,VWS V14.01,2013-10-18 20:44:00,
2013-10-18 15:49:00,68.9,40.2,30.06,NE,45,4.3,4.3,35,0.00,,---,0.00,VWS V14.01,2013-10-18 20:49:00,
2013-10-18 15:54:00,68.9,39.4,30.06,NNE,22,4.0,4.0,34,0.00,,---,0.00,VWS V14.01,2013-10-18 20:54:00,
2013-10-18 15:59:00,68.7,40.0,30.06,NNW,338,3.4,4.0,35,0.00,,---,0.00,VWS V14.01,2013-10-18 20:59:00,
2013-10-18 16:04:00,68.4,40.4,30.06,WNW,292,2.2,3.8,36,0.00,,---,0.00,VWS V14.01,2013-10-18 21:04:00,
2013-10-18 16:09:00,68.4,39.7,30.06,West,270,0.0,0.0,35,0.00,,---,0.00,VWS V14.01,2013-10-18 21:09:00,
2013-10-18 16:14:00,67.8,39.9,30.06,NNE,22,2.0,2.0,36,0.00,,---,0.00,VWS V14.01,2013-10-18 21:14:00,
2013-10-18 16:19:00,67.3,39.4,30.06,WNW,292,1.6,2.0,36,0.00,,---,0.00,VWS V14.01,2013-10-18 21:19:00,
2013-10-18 16:24:00,66.9,40.5,30.06,NNW,338,0.0,0.0,38,0.00,,---,0.00,VWS V14.01,2013-10-18 21:24:00,
2013-10-18 16:29:00,66.9,40.5,30.06,NNW,338,2.0,2.0,38,0.00,,---,0.00,VWS V14.01,2013-10-18 21:29:00,
2013-10-18 16:34:00,66.9,40.5,30.06,ENE,68,0.0,1.1,38,0.00,,---,0.00,VWS V14.01,2013-10-18 21:34:00,
2013-10-18 16:39:00,67.1,39.3,30.06,WSW,248,1.3,2.5,36,0.00,,---,0.00,VWS V14.01,2013-10-18 21:39:00,
2013-10-18 16:44:00,67.1,40.7,30.06,WSW,248,0.0,0.0,38,0.00,,---,0.00,VWS V14.01,2013-10-18 21:44:00,
2013-10-18 16:49:00,67.3,40.8,30.06,NW,315,0.0,0.0,38,0.00,,---,0.00,VWS V14.01,2013-10-18 21:49:00,
2013-10-18 16:54:00,67.3,41.5,30.06,WSW,248,0.0,0.0,39,0.00,,---,0.00,VWS V14.01,2013-10-18 21:54:00,
2013-10-18 16:59:00,67.3,41.5,30.06,WNW,292,3.6,3.6,39,0.00,,---,0.00,VWS V14.01,2013-10-18 21:59:00,
2013-10-18 17:04:00,67.3,40.8,30.06,West,270,0.0,1.6,38,0.00,,---,0.00,VWS V14.01,2013-10-18 22:04:00,
2013-10-18 17:09:00,66.9,40.5,30.06,NNE,22,2.2,3.4,38,0.00,,---,0.00,VWS V14.01,2013-10-18 22:09:00,
2013-10-18 17:14:00,66.4,40.0,30.09,WNW,292,2.2,2.2,38,0.00,,---,0.00,VWS V14.01,2013-10-18 22:14:00,
2013-10-18 17:19:00,66.0,40.4,30.09,West,270,0.0,0.0,39,0.00,,---,0.00,VWS V14.01,2013-10-18 22:19:00,
2013-10-18 17:24:00,65.5,41.8,30.09,West,270,0.0,1.1,42,0.00,,---,0.00,VWS V14.01,2013-10-18 22:24:00,
2013-10-18 17:29:00,65.1,42.1,30.06,West,270,0.0,0.0,43,0.00,,---,0.00,VWS V14.01,2013-10-18 22:29:00,
2013-10-18 17:34:00,64.8,42.4,30.06,West,270,0.0,0.0,44,0.00,,---,0.00,VWS V14.01,2013-10-18 22:34:00,
2013-10-18 17:39:00,64.2,42.5,30.06,West,270,0.0,0.0,45,0.00,,---,0.00,VWS V14.01,2013-10-18 22:39:00,
2013-10-18 17:44:00,64.0,42.3,30.06,West,270,0.0,0.0,45,0.00,,---,0.00,VWS V14.01,2013-10-18 22:44:00,
2013-10-18 17:49:00,63.7,43.1,30.06,West,270,0.0,0.0,47,0.00,,---,0.00,VWS V14.01,2013-10-18 22:49:00,
2013-10-18 17:54:00,63.3,42.8,30.06,West,270,0.0,0.0,47,0.00,,---,0.00,VWS V14.01,2013-10-18 22:54:00,
2013-10-18 17:59:00,63.0,43.0,30.06,West,270,0.0,0.0,48,0.00,,---,0.00,VWS V14.01,2013-10-18 22:59:00,
2013-10-18 18:04:00,62.4,43.0,30.06,West,270,0.0,0.0,49,0.00,,---,0.00,VWS V14.01,2013-10-18 23:04:00,
2013-10-18 18:09:00,62.1,43.2,30.06,West,270,0.0,0.0,50,0.00,,---,0.00,VWS V14.01,2013-10-18 23:09:00,
2013-10-18 18:14:00,61.5,43.2,30.06,West,270,0.0,0.0,51,0.00,,---,0.00,VWS V14.01,2013-10-18 23:14:00,
2013-10-18 18:19:00,61.2,42.9,30.06,West,270,0.0,0.0,51,0.00,,---,0.00,VWS V14.01,2013-10-18 23:19:00,
2013-10-18 18:24:00,61.0,43.8,30.06,West,270,0.0,0.0,53,0.00,,---,0.00,VWS V14.01,2013-10-18 23:24:00,
2013-10-18 18:29:00,60.4,43.7,30.09,West,270,0.0,0.0,54,0.00,,---,0.00,VWS V14.01,2013-10-18 23:29:00,
2013-10-18 18:34:00,60.1,43.9,30.09,West,270,0.0,0.0,55,0.00,,---,0.00,VWS V14.01,2013-10-18 23:34:00,
2013-10-18 18:39:00,59.7,44.0,30.09,West,270,0.0,0.0,56,0.00,,---,0.00,VWS V14.01,2013-10-18 23:39:00,
2013-10-18 18:44:00,59.4,43.7,30.09,West,270,0.0,0.0,56,0.00,,---,0.00,VWS V14.01,2013-10-18 23:44:00,
2013-10-18 18:49:00,59.2,44.0,30.09,West,270,0.0,0.0,57,0.00,,---,0.00,VWS V14.01,2013-10-18 23:49:00,
2013-10-18 18:54:00,58.8,45.0,30.09,West,270,0.0,0.0,60,0.00,,---,0.00,VWS V14.01,2013-10-18 23:54:00,
2013-10-18 18:59:00,58.5,44.6,30.09,West,270,0.0,0.0,60,0.00,,---,0.00,VWS V14.01,2013-10-18 23:59:00,
2013-10-18 19:04:00,58.3,44.9,30.09,West,270,0.0,0.0,61,0.00,,---,0.00,VWS V14.01,2013-10-19 00:04:00,
2013-10-18 19:09:00,57.9,45.0,30.09,West,270,0.0,0.0,62,0.00,,---,0.00,VWS V14.01,2013-10-19 00:09:00,
2013-10-18 19:14:00,57.7,45.7,30.09,West,270,0.0,0.0,64,0.00,,---,0.00,VWS V14.01,2013-10-19 00:14:00,
2013-10-18 19:19:00,57.6,45.5,30.09,West,270,0.0,0.0,64,0.00,,---,0.00,VWS V14.01,2013-10-19 00:19:00,
2013-10-18 19:24:00,57.4,45.7,30.09,West,270,0.0,0.0,65,0.00,,---,0.00,VWS V14.01,2013-10-19 00:24:00,
2013-10-18 19:29:00,57.2,45.6,30.09,West,270,0.0,0.0,65,0.00,,---,0.00,VWS V14.01,2013-10-19 00:29:00,
2013-10-18 19:34:00,57.2,46.4,30.09,West,270,0.0,0.0,67,0.00,,---,0.00,VWS V14.01,2013-10-19 00:34:00,
2013-10-18 19:39:00,57.0,46.6,30.09,West,270,0.0,0.0,68,0.00,,---,0.00,VWS V14.01,2013-10-19 00:39:00,
2013-10-18 19:43:00,57.0,46.6,30.09,West,270,0.0,0.0,68,0.00,,---,0.00,VWS V14.01,2013-10-19 00:43:00,
2013-10-18 19:48:00,57.0,46.6,30.09,West,270,0.0,0.0,68,0.00,,---,0.00,VWS V14.01,2013-10-19 00:48:00,
2013-10-18 19:53:00,57.0,46.6,30.09,West,270,0.0,0.0,68,0.00,,---,0.00,VWS V14.01,2013-10-19 00:53:00,
2013-10-18 19:58:00,57.0,46.6,30.09,West,270,0.0,0.0,68,0.00,,---,0.00,VWS V14.01,2013-10-19 00:58:00,
2013-10-18 20:03:00,57.0,46.6,30.09,West,270,0.0,0.0,68,0.00,,---,0.00,VWS V14.01,2013-10-19 01:03:00,
2013-10-18 20:08:00,57.0,46.6,30.09,West,270,0.0,0.0,68,0.00,,---,0.00,VWS V14.01,2013-10-19 01:08:00,
2013-10-18 20:13:00,56.1,46.9,30.09,West,270,0.0,0.0,71,0.00,,---,0.00,VWS V14.01,2013-10-19 01:13:00,
2013-10-18 20:18:00,56.1,46.9,30.09,West,270,0.0,0.0,71,0.00,,---,0.00,VWS V14.01,2013-10-19 01:18:00,
2013-10-18 20:23:00,55.9,47.1,30.09,West,270,0.0,0.0,72,0.00,,---,0.00,VWS V14.01,2013-10-19 01:23:00,
2013-10-18 20:28:00,55.9,47.1,30.09,West,270,0.0,0.0,72,0.00,,---,0.00,VWS V14.01,2013-10-19 01:28:00,
2013-10-18 20:33:00,55.9,47.1,30.09,West,270,0.0,0.0,72,0.00,,---,0.00,VWS V14.01,2013-10-19 01:33:00,
2013-10-18 20:38:00,55.8,47.2,30.09,West,270,0.0,0.0,73,0.00,,---,0.00,VWS V14.01,2013-10-19 01:38:00,
2013-10-18 20:43:00,55.8,47.2,30.09,West,270,0.0,0.0,73,0.00,,---,0.00,VWS V14.01,2013-10-19 01:43:00,
2013-10-18 20:48:00,55.8,47.2,30.09,West,270,0.0,0.0,73,0.00,,---,0.00,VWS V14.01,2013-10-19 01:48:00,
2013-10-18 20:53:00,55.6,47.4,30.09,West,270,0.0,0.0,74,0.00,,---,0.00,VWS V14.01,2013-10-19 01:53:00,
2013-10-18 20:58:00,55.4,47.3,30.06,West,270,0.0,0.0,74,0.00,,---,0.00,VWS V14.01,2013-10-19 01:58:00,
2013-10-18 21:03:00,55.4,47.3,30.06,West,270,0.0,0.0,74,0.00,,---,0.00,VWS V14.01,2013-10-19 02:03:00,
2013-10-18 21:08:00,55.4,47.3,30.06,West,270,0.0,0.0,74,0.00,,---,0.00,VWS V14.01,2013-10-19 02:08:00,
2013-10-18 21:13:00,55.4,47.3,30.09,West,270,0.0,0.0,74,0.00,,---,0.00,VWS V14.01,2013-10-19 02:13:00,
2013-10-18 21:18:00,55.4,47.3,30.09,West,270,0.0,0.0,74,0.00,,---,0.00,VWS V14.01,2013-10-19 02:18:00,
2013-10-18 21:23:00,55.4,47.3,30.09,ESE,112,1.6,1.6,74,0.00,,---,0.00,VWS V14.01,2013-10-19 02:23:00,
2013-10-18 21:28:00,55.4,47.3,30.09,ESE,112,0.0,0.0,74,0.00,,---,0.00,VWS V14.01,2013-10-19 02:28:00,
2013-10-18 21:33:00,55.4,47.3,30.09,ESE,112,0.0,0.0,74,0.00,,---,0.00,VWS V14.01,2013-10-19 02:33:00,
2013-10-18 21:38:00,55.4,47.3,30.09,ESE,112,0.0,0.0,74,0.00,,---,0.00,VWS V14.01,2013-10-19 02:38:00,
2013-10-18 21:43:00,55.4,47.3,30.09,ESE,112,0.0,0.0,74,0.00,,---,0.00,VWS V14.01,2013-10-19 02:43:00,
2013-10-18 21:48:00,55.4,47.3,30.09,ESE,112,0.0,0.0,74,0.00,,---,0.00,VWS V14.01,2013-10-19 02:48:00,
2013-10-18 21:53:00,55.4,47.3,30.09,ESE,112,0.0,0.0,74,0.00,,---,0.00,VWS V14.01,2013-10-19 02:53:00,
2013-10-18 21:58:00,55.4,47.3,30.09,ESE,112,0.0,0.0,74,0.00,,---,0.00,VWS V14.01,2013-10-19 02:58:00,
2013-10-18 22:03:00,55.4,47.3,30.09,ESE,112,0.0,0.0,74,0.00,,---,0.00,VWS V14.01,2013-10-19 03:03:00,
2013-10-18 22:08:00,55.4,47.3,30.09,ESE,112,0.0,0.0,74,0.00,,---,0.00,VWS V14.01,2013-10-19 03:08:00,
2013-10-18 22:13:00,55.4,47.3,30.06,ESE,112,0.0,0.0,74,0.00,,---,0.00,VWS V14.01,2013-10-19 03:13:00,
2013-10-18 22:18:00,55.4,47.3,30.06,ESE,112,0.0,0.0,74,0.00,,---,0.00,VWS V14.01,2013-10-19 03:18:00,
2013-10-18 22:23:00,55.4,47.3,30.06,ESE,112,0.0,0.0,74,0.00,,---,0.00,VWS V14.01,2013-10-19 03:23:00,
2013-10-18 22:28:00,55.4,47.3,30.09,SSW,202,0.0,0.0,74,0.00,,---,0.00,VWS V14.01,2013-10-19 03:28:00,
2013-10-18 22:33:00,55.4,47.3,30.09,SSW,202,0.0,0.0,74,0.00,,---,0.00,VWS V14.01,2013-10-19 03:33:00,
2013-10-18 22:38:00,55.4,47.3,30.09,SE,135,0.0,0.0,74,0.00,,---,0.00,VWS V14.01,2013-10-19 03:38:00,
2013-10-18 22:43:00,55.4,47.3,30.09,SSW,202,0.0,0.0,74,0.00,,---,0.00,VWS V14.01,2013-10-19 03:43:00,
2013-10-18 22:48:00,55.4,47.3,30.09,SSW,202,0.0,0.0,74,0.00,,---,0.00,VWS V14.01,2013-10-19 03:48:00,
2013-10-18 22:53:00,55.4,47.3,30.09,SSE,158,0.0,0.0,74,0.00,,---,0.00,VWS V14.01,2013-10-19 03:53:00,
2013-10-18 22:58:00,55.4,47.3,30.06,ESE,112,0.0,0.0,74,0.00,,---,0.00,VWS V14.01,2013-10-19 03:58:00,
2013-10-18 23:01:00,55.4,47.3,30.06,ESE,112,3.1,3.8,74,0.00,,---,0.00,VWS V14.01,2013-10-19 04:01:00,
2013-10-18 23:06:00,55.4,47.3,30.06,East,90,0.0,0.0,74,0.00,,---,0.00,VWS V14.01,2013-10-19 04:06:00,
2013-10-18 23:11:00,55.4,47.3,30.09,ESE,112,1.1,1.1,74,0.00,,---,0.00,VWS V14.01,2013-10-19 04:11:00,
2013-10-18 23:16:00,55.4,47.3,30.09,ESE,112,1.6,2.0,74,0.00,,---,0.00,VWS V14.01,2013-10-19 04:16:00,
2013-10-18 23:21:00,55.4,47.3,30.09,ESE,112,0.0,0.0,74,0.00,,---,0.00,VWS V14.01,2013-10-19 04:21:00,
2013-10-18 23:26:00,55.4,47.3,30.06,ESE,112,1.3,1.3,74,0.00,,---,0.00,VWS V14.01,2013-10-19 04:26:00,
2013-10-18 23:31:00,55.4,47.3,30.06,ESE,112,0.0,0.0,74,0.00,,---,0.00,VWS V14.01,2013-10-19 04:31:00,
2013-10-18 23:36:00,55.4,47.3,30.06,ESE,112,2.5,2.5,74,0.00,,---,0.00,VWS V14.01,2013-10-19 04:36:00,
2013-10-18 23:41:00,55.4,47.3,30.06,ESE,112,0.0,0.0,74,0.00,,---,0.00,VWS V14.01,2013-10-19 04:41:00,
2013-10-18 23:46:00,55.4,47.3,30.06,ESE,112,0.0,0.0,74,0.00,,---,0.00,VWS V14.01,2013-10-19 04:46:00,
2013-10-18 23:51:00,55.4,47.3,30.06,ESE,112,0.0,0.0,74,0.00,,---,0.00,VWS V14.01,2013-10-19 04:51:00,
2013-10-18 23:56:00,55.4,47.3,30.06,ESE,112,0.0,0.0,74,0.00,,---,0.00,VWS V14.01,2013-10-19 04:56:00,